sensor_id;sensor_type;location;lat;lon;timestamp;P1;durP1;ratioP1;P2;durP2;ratioP2
54745;SDS011;40640;48.130;11.356;2023-06-22T00:03:55;9.02;;;4.00;;
54745;SDS011;40640;48.130;11.356;2023-06-22T00:08:01;18.00;;;4.15;;
54745;SDS011;40640;48.130;11.356;2023-06-22T00:12:06;10.68;;;3.20;;
54745;SDS011;40640;48.130;11.356;2023-06-22T00:16:09;10.27;;;3.83;;
54745;SDS011;40640;48.130;11.356;2023-06-22T00:20:14;11.55;;;4.40;;
54745;SDS011;40640;48.130;11.356;2023-06-22T00:24:18;6.43;;;3.40;;
54745;SDS011;40640;48.130;11.356;2023-06-22T00:28:21;11.88;;;4.22;;
54745;SDS011;40640;48.130;11.356;2023-06-22T00:32:23;7.70;;;4.18;;
54745;SDS011;40640;48.130;11.356;2023-06-22T00:36:28;14.95;;;4.05;;
54745;SDS011;40640;48.130;11.356;2023-06-22T00:40:31;12.02;;;4.30;;
54745;SDS011;40640;48.130;11.356;2023-06-22T00:44:35;7.72;;;3.78;;
54745;SDS011;40640;48.130;11.356;2023-06-22T00:48:38;12.27;;;3.83;;
54745;SDS011;40640;48.130;11.356;2023-06-22T00:52:44;12.75;;;4.07;;
54745;SDS011;40640;48.130;11.356;2023-06-22T00:56:47;11.60;;;4.20;;
54745;SDS011;40640;48.130;11.356;2023-06-22T01:00:55;15.02;;;4.60;;
54745;SDS011;40640;48.130;11.356;2023-06-22T01:05:01;9.38;;;4.20;;
54745;SDS011;40640;48.130;11.356;2023-06-22T01:09:07;16.70;;;4.53;;
54745;SDS011;40640;48.130;11.356;2023-06-22T01:13:19;14.88;;;4.07;;
54745;SDS011;40640;48.130;11.356;2023-06-22T01:17:28;11.05;;;4.57;;
54745;SDS011;40640;48.130;11.356;2023-06-22T01:21:32;9.45;;;4.50;;
54745;SDS011;40640;48.130;11.356;2023-06-22T01:25:39;12.50;;;4.97;;
54745;SDS011;40640;48.130;11.356;2023-06-22T01:29:49;13.95;;;4.90;;
54745;SDS011;40640;48.130;11.356;2023-06-22T01:33:55;10.68;;;4.72;;
54745;SDS011;40640;48.130;11.356;2023-06-22T01:38:00;9.60;;;3.90;;
54745;SDS011;40640;48.130;11.356;2023-06-22T01:42:04;10.68;;;4.82;;
54745;SDS011;40640;48.130;11.356;2023-06-22T01:46:08;10.05;;;4.65;;
54745;SDS011;40640;48.130;11.356;2023-06-22T01:50:12;20.10;;;4.18;;
54745;SDS011;40640;48.130;11.356;2023-06-22T01:54:15;13.85;;;4.07;;
54745;SDS011;40640;48.130;11.356;2023-06-22T01:58:21;7.38;;;3.67;;
54745;SDS011;40640;48.130;11.356;2023-06-22T02:02:31;12.45;;;4.45;;
54745;SDS011;40640;48.130;11.356;2023-06-22T02:06:38;11.20;;;4.40;;
54745;SDS011;40640;48.130;11.356;2023-06-22T02:10:44;13.73;;;4.53;;
54745;SDS011;40640;48.130;11.356;2023-06-22T02:14:49;9.98;;;4.55;;
54745;SDS011;40640;48.130;11.356;2023-06-22T02:18:54;15.25;;;5.15;;
54745;SDS011;40640;48.130;11.356;2023-06-22T02:22:58;13.80;;;4.60;;
54745;SDS011;40640;48.130;11.356;2023-06-22T02:27:01;12.27;;;4.32;;
54745;SDS011;40640;48.130;11.356;2023-06-22T02:31:06;13.23;;;4.28;;
54745;SDS011;40640;48.130;11.356;2023-06-22T02:35:10;11.48;;;4.57;;
54745;SDS011;40640;48.130;11.356;2023-06-22T02:39:13;16.67;;;5.28;;
54745;SDS011;40640;48.130;11.356;2023-06-22T02:43:18;10.45;;;4.93;;
54745;SDS011;40640;48.130;11.356;2023-06-22T02:47:21;12.40;;;4.85;;
54745;SDS011;40640;48.130;11.356;2023-06-22T02:51:25;11.68;;;4.40;;
54745;SDS011;40640;48.130;11.356;2023-06-22T02:55:28;11.15;;;4.50;;
54745;SDS011;40640;48.130;11.356;2023-06-22T02:59:33;18.20;;;4.82;;
54745;SDS011;40640;48.130;11.356;2023-06-22T03:03:42;11.88;;;4.80;;
54745;SDS011;40640;48.130;11.356;2023-06-22T03:07:46;14.60;;;4.75;;
54745;SDS011;40640;48.130;11.356;2023-06-22T03:11:50;10.30;;;4.78;;
54745;SDS011;40640;48.130;11.356;2023-06-22T03:15:54;10.70;;;5.10;;
54745;SDS011;40640;48.130;11.356;2023-06-22T03:19:57;9.15;;;5.22;;
54745;SDS011;40640;48.130;11.356;2023-06-22T03:24:01;10.82;;;5.13;;
54745;SDS011;40640;48.130;11.356;2023-06-22T03:28:05;13.73;;;4.78;;
54745;SDS011;40640;48.130;11.356;2023-06-22T03:32:07;9.00;;;5.47;;
54745;SDS011;40640;48.130;11.356;2023-06-22T03:36:10;11.73;;;5.38;;
54745;SDS011;40640;48.130;11.356;2023-06-22T03:40:15;8.85;;;5.75;;
54745;SDS011;40640;48.130;11.356;2023-06-22T03:44:18;15.80;;;4.85;;
54745;SDS011;40640;48.130;11.356;2023-06-22T03:48:21;15.07;;;5.30;;
54745;SDS011;40640;48.130;11.356;2023-06-22T03:52:24;13.23;;;5.45;;
54745;SDS011;40640;48.130;11.356;2023-06-22T03:56:28;9.88;;;5.20;;
54745;SDS011;40640;48.130;11.356;2023-06-22T04:00:31;12.82;;;5.60;;
54745;SDS011;40640;48.130;11.356;2023-06-22T04:04:34;16.95;;;6.18;;
54745;SDS011;40640;48.130;11.356;2023-06-22T04:08:37;11.25;;;5.65;;
54745;SDS011;40640;48.130;11.356;2023-06-22T04:12:41;14.65;;;5.55;;
54745;SDS011;40640;48.130;11.356;2023-06-22T04:16:44;15.88;;;5.75;;
54745;SDS011;40640;48.130;11.356;2023-06-22T04:20:47;13.60;;;6.00;;
54745;SDS011;40640;48.130;11.356;2023-06-22T04:24:50;11.48;;;5.70;;
54745;SDS011;40640;48.130;11.356;2023-06-22T04:28:55;9.75;;;5.15;;
54745;SDS011;40640;48.130;11.356;2023-06-22T04:32:58;14.98;;;5.97;;
54745;SDS011;40640;48.130;11.356;2023-06-22T04:37:01;11.40;;;5.70;;
54745;SDS011;40640;48.130;11.356;2023-06-22T04:41:04;14.88;;;6.28;;
54745;SDS011;40640;48.130;11.356;2023-06-22T04:45:09;13.35;;;5.93;;
54745;SDS011;40640;48.130;11.356;2023-06-22T04:49:12;11.90;;;5.93;;
54745;SDS011;40640;48.130;11.356;2023-06-22T04:53:15;21.25;;;6.18;;
54745;SDS011;40640;48.130;11.356;2023-06-22T04:57:18;14.35;;;6.85;;
54745;SDS011;40640;48.130;11.356;2023-06-22T05:01:22;11.38;;;5.30;;
54745;SDS011;40640;48.130;11.356;2023-06-22T05:05:26;16.33;;;5.80;;
54745;SDS011;40640;48.130;11.356;2023-06-22T05:09:29;15.73;;;5.80;;
54745;SDS011;40640;48.130;11.356;2023-06-22T05:13:32;14.02;;;6.22;;
54745;SDS011;40640;48.130;11.356;2023-06-22T05:17:36;12.80;;;5.93;;
54745;SDS011;40640;48.130;11.356;2023-06-22T05:21:44;20.05;;;6.63;;
54745;SDS011;40640;48.130;11.356;2023-06-22T05:25:47;15.35;;;6.80;;
54745;SDS011;40640;48.130;11.356;2023-06-22T05:29:50;17.10;;;6.97;;
54745;SDS011;40640;48.130;11.356;2023-06-22T05:33:54;12.82;;;6.47;;
54745;SDS011;40640;48.130;11.356;2023-06-22T05:37:58;16.63;;;6.72;;
54745;SDS011;40640;48.130;11.356;2023-06-22T05:42:00;22.13;;;7.70;;
54745;SDS011;40640;48.130;11.356;2023-06-22T05:46:03;18.23;;;6.90;;
54745;SDS011;40640;48.130;11.356;2023-06-22T05:50:08;15.23;;;6.22;;
54745;SDS011;40640;48.130;11.356;2023-06-22T05:54:14;13.00;;;6.45;;
54745;SDS011;40640;48.130;11.356;2023-06-22T05:58:19;12.60;;;6.00;;
54745;SDS011;40640;48.130;11.356;2023-06-22T06:02:22;15.45;;;6.72;;
54745;SDS011;40640;48.130;11.356;2023-06-22T06:06:26;15.02;;;6.70;;
54745;SDS011;40640;48.130;11.356;2023-06-22T06:10:29;12.60;;;6.57;;
54745;SDS011;40640;48.130;11.356;2023-06-22T06:14:34;14.10;;;6.17;;
54745;SDS011;40640;48.130;11.356;2023-06-22T06:18:37;17.50;;;7.60;;
54745;SDS011;40640;48.130;11.356;2023-06-22T06:22:41;13.68;;;7.07;;
54745;SDS011;40640;48.130;11.356;2023-06-22T06:26:45;22.80;;;7.68;;
54745;SDS011;40640;48.130;11.356;2023-06-22T06:30:48;20.48;;;6.90;;
54745;SDS011;40640;48.130;11.356;2023-06-22T06:34:53;20.55;;;7.32;;
54745;SDS011;40640;48.130;11.356;2023-06-22T06:38:57;17.63;;;7.13;;
54745;SDS011;40640;48.130;11.356;2023-06-22T06:43:00;14.13;;;6.32;;
54745;SDS011;40640;48.130;11.356;2023-06-22T06:47:03;21.20;;;7.53;;
54745;SDS011;40640;48.130;11.356;2023-06-22T06:51:06;13.82;;;8.27;;
54745;SDS011;40640;48.130;11.356;2023-06-22T06:55:12;14.98;;;6.55;;
54745;SDS011;40640;48.130;11.356;2023-06-22T06:59:15;16.58;;;6.97;;
54745;SDS011;40640;48.130;11.356;2023-06-22T07:03:18;17.58;;;7.95;;
54745;SDS011;40640;48.130;11.356;2023-06-22T07:07:21;17.75;;;6.65;;
54745;SDS011;40640;48.130;11.356;2023-06-22T07:11:25;16.33;;;7.20;;
54745;SDS011;40640;48.130;11.356;2023-06-22T07:15:28;20.70;;;6.78;;
54745;SDS011;40640;48.130;11.356;2023-06-22T07:19:32;12.02;;;6.18;;
54745;SDS011;40640;48.130;11.356;2023-06-22T07:23:35;26.42;;;6.15;;
54745;SDS011;40640;48.130;11.356;2023-06-22T07:27:42;15.93;;;6.65;;
54745;SDS011;40640;48.130;11.356;2023-06-22T07:31:47;12.40;;;6.35;;
54745;SDS011;40640;48.130;11.356;2023-06-22T07:35:52;17.05;;;6.93;;
54745;SDS011;40640;48.130;11.356;2023-06-22T07:39:55;18.42;;;6.43;;
54745;SDS011;40640;48.130;11.356;2023-06-22T07:44:01;18.10;;;6.63;;
54745;SDS011;40640;48.130;11.356;2023-06-22T07:48:04;17.83;;;6.70;;
54745;SDS011;40640;48.130;11.356;2023-06-22T07:52:08;20.20;;;6.85;;
54745;SDS011;40640;48.130;11.356;2023-06-22T07:56:11;19.95;;;6.68;;
54745;SDS011;40640;48.130;11.356;2023-06-22T08:00:15;18.60;;;7.22;;
54745;SDS011;40640;48.130;11.356;2023-06-22T08:04:19;21.92;;;6.95;;
54745;SDS011;40640;48.130;11.356;2023-06-22T08:08:26;20.52;;;6.93;;
54745;SDS011;40640;48.130;11.356;2023-06-22T08:12:29;20.33;;;6.70;;
54745;SDS011;40640;48.130;11.356;2023-06-22T08:16:33;20.48;;;7.07;;
54745;SDS011;40640;48.130;11.356;2023-06-22T08:20:36;24.23;;;6.82;;
54745;SDS011;40640;48.130;11.356;2023-06-22T08:24:39;24.13;;;6.85;;
54745;SDS011;40640;48.130;11.356;2023-06-22T08:28:42;19.85;;;6.55;;
54745;SDS011;40640;48.130;11.356;2023-06-22T08:32:46;15.95;;;6.82;;
54745;SDS011;40640;48.130;11.356;2023-06-22T08:36:49;16.00;;;6.32;;
54745;SDS011;40640;48.130;11.356;2023-06-22T08:40:52;18.67;;;6.65;;
54745;SDS011;40640;48.130;11.356;2023-06-22T08:44:55;14.02;;;6.28;;
54745;SDS011;40640;48.130;11.356;2023-06-22T08:49:00;16.77;;;6.75;;
54745;SDS011;40640;48.130;11.356;2023-06-22T08:53:03;17.52;;;6.95;;
54745;SDS011;40640;48.130;11.356;2023-06-22T08:57:06;22.10;;;7.22;;
54745;SDS011;40640;48.130;11.356;2023-06-22T09:01:09;16.90;;;5.93;;
54745;SDS011;40640;48.130;11.356;2023-06-22T09:05:13;16.58;;;6.65;;
54745;SDS011;40640;48.130;11.356;2023-06-22T09:09:17;23.58;;;5.93;;
54745;SDS011;40640;48.130;11.356;2023-06-22T09:13:20;15.38;;;6.03;;
54745;SDS011;40640;48.130;11.356;2023-06-22T09:17:23;19.55;;;6.18;;
54745;SDS011;40640;48.130;11.356;2023-06-22T09:21:28;24.90;;;7.50;;
54745;SDS011;40640;48.130;11.356;2023-06-22T09:25:34;15.82;;;6.18;;
54745;SDS011;40640;48.130;11.356;2023-06-22T09:29:37;20.33;;;7.28;;
54745;SDS011;40640;48.130;11.356;2023-06-22T09:33:40;19.33;;;6.85;;
54745;SDS011;40640;48.130;11.356;2023-06-22T09:37:44;20.38;;;7.32;;
54745;SDS011;40640;48.130;11.356;2023-06-22T09:41:47;22.53;;;6.80;;
54745;SDS011;40640;48.130;11.356;2023-06-22T09:45:50;21.60;;;7.45;;
54745;SDS011;40640;48.130;11.356;2023-06-22T09:49:53;24.42;;;6.97;;
54745;SDS011;40640;48.130;11.356;2023-06-22T09:53:58;21.23;;;6.40;;
54745;SDS011;40640;48.130;11.356;2023-06-22T09:58:01;30.05;;;7.18;;
54745;SDS011;40640;48.130;11.356;2023-06-22T10:02:04;22.08;;;6.80;;
54745;SDS011;40640;48.130;11.356;2023-06-22T10:06:08;20.87;;;7.77;;
54745;SDS011;40640;48.130;11.356;2023-06-22T10:10:13;18.90;;;6.40;;
54745;SDS011;40640;48.130;11.356;2023-06-22T10:14:16;19.33;;;6.85;;
54745;SDS011;40640;48.130;11.356;2023-06-22T10:18:19;16.77;;;6.40;;
54745;SDS011;40640;48.130;11.356;2023-06-22T10:22:23;18.85;;;7.50;;
54745;SDS011;40640;48.130;11.356;2023-06-22T10:26:27;18.85;;;6.60;;
54745;SDS011;40640;48.130;11.356;2023-06-22T10:30:30;22.08;;;6.90;;
54745;SDS011;40640;48.130;11.356;2023-06-22T10:34:33;21.05;;;6.72;;
54745;SDS011;40640;48.130;11.356;2023-06-22T10:38:36;22.58;;;6.97;;
54745;SDS011;40640;48.130;11.356;2023-06-22T10:42:41;18.23;;;6.15;;
54745;SDS011;40640;48.130;11.356;2023-06-22T10:46:44;20.48;;;6.60;;
54745;SDS011;40640;48.130;11.356;2023-06-22T10:50:48;18.23;;;6.60;;
54745;SDS011;40640;48.130;11.356;2023-06-22T10:54:51;21.63;;;6.78;;
54745;SDS011;40640;48.130;11.356;2023-06-22T10:58:55;26.58;;;6.35;;
54745;SDS011;40640;48.130;11.356;2023-06-22T11:02:58;13.82;;;6.88;;
54745;SDS011;40640;48.130;11.356;2023-06-22T11:07:02;17.63;;;6.35;;
54745;SDS011;40640;48.130;11.356;2023-06-22T11:11:05;16.73;;;6.65;;
54745;SDS011;40640;48.130;11.356;2023-06-22T11:15:09;21.45;;;6.82;;
54745;SDS011;40640;48.130;11.356;2023-06-22T11:19:12;22.77;;;6.30;;
54745;SDS011;40640;48.130;11.356;2023-06-22T11:23:15;24.23;;;6.28;;
54745;SDS011;40640;48.130;11.356;2023-06-22T11:27:18;24.48;;;7.10;;
54745;SDS011;40640;48.130;11.356;2023-06-22T11:31:23;15.45;;;5.90;;
54745;SDS011;40640;48.130;11.356;2023-06-22T11:35:27;20.63;;;6.32;;
54745;SDS011;40640;48.130;11.356;2023-06-22T11:39:30;28.60;;;6.57;;
54745;SDS011;40640;48.130;11.356;2023-06-22T11:43:44;17.98;;;6.45;;
54745;SDS011;40640;48.130;11.356;2023-06-22T11:47:48;20.13;;;6.38;;
54745;SDS011;40640;48.130;11.356;2023-06-22T11:51:51;20.92;;;6.65;;
54745;SDS011;40640;48.130;11.356;2023-06-22T11:55:54;26.60;;;7.43;;
54745;SDS011;40640;48.130;11.356;2023-06-22T11:59:58;16.20;;;6.88;;
54745;SDS011;40640;48.130;11.356;2023-06-22T12:04:02;23.50;;;6.72;;
54745;SDS011;40640;48.130;11.356;2023-06-22T12:08:07;17.17;;;6.63;;
54745;SDS011;40640;48.130;11.356;2023-06-22T12:12:10;15.88;;;6.47;;
54745;SDS011;40640;48.130;11.356;2023-06-22T12:16:12;16.35;;;6.68;;
54745;SDS011;40640;48.130;11.356;2023-06-22T12:24:20;17.08;;;6.43;;
54745;SDS011;40640;48.130;11.356;2023-06-22T12:28:23;18.10;;;6.30;;
54745;SDS011;40640;48.130;11.356;2023-06-22T12:32:25;13.57;;;5.80;;
54745;SDS011;40640;48.130;11.356;2023-06-22T12:36:30;20.08;;;6.88;;
54745;SDS011;40640;48.130;11.356;2023-06-22T12:40:33;15.70;;;6.28;;
54745;SDS011;40640;48.130;11.356;2023-06-22T12:44:37;16.95;;;6.30;;
54745;SDS011;40640;48.130;11.356;2023-06-22T12:48:43;27.17;;;7.43;;
54745;SDS011;40640;48.130;11.356;2023-06-22T12:52:47;18.60;;;6.38;;
54745;SDS011;40640;48.130;11.356;2023-06-22T12:56:50;21.38;;;7.40;;
54745;SDS011;40640;48.130;11.356;2023-06-22T13:00:55;18.55;;;6.00;;
54745;SDS011;40640;48.130;11.356;2023-06-22T13:04:58;21.20;;;6.37;;
54745;SDS011;40640;48.130;11.356;2023-06-22T13:09:03;17.07;;;6.33;;
54745;SDS011;40640;48.130;11.356;2023-06-22T13:13:21;16.05;;;5.88;;
54745;SDS011;40640;48.130;11.356;2023-06-22T13:17:25;13.70;;;5.72;;
54745;SDS011;40640;48.130;11.356;2023-06-22T13:21:29;17.88;;;6.10;;
54745;SDS011;40640;48.130;11.356;2023-06-22T13:25:34;15.10;;;5.80;;
54745;SDS011;40640;48.130;11.356;2023-06-22T13:29:37;16.52;;;5.85;;
54745;SDS011;40640;48.130;11.356;2023-06-22T13:33:39;19.35;;;6.40;;
54745;SDS011;40640;48.130;11.356;2023-06-22T13:37:42;13.27;;;5.65;;
54745;SDS011;40640;48.130;11.356;2023-06-22T13:41:47;23.15;;;6.40;;
54745;SDS011;40640;48.130;11.356;2023-06-22T13:45:49;19.00;;;6.55;;
54745;SDS011;40640;48.130;11.356;2023-06-22T13:49:53;18.48;;;5.90;;
54745;SDS011;40640;48.130;11.356;2023-06-22T13:53:56;13.97;;;5.07;;
54745;SDS011;40640;48.130;11.356;2023-06-22T13:58:00;17.90;;;5.45;;
54745;SDS011;40640;48.130;11.356;2023-06-22T14:02:04;16.52;;;5.40;;
54745;SDS011;40640;48.130;11.356;2023-06-22T14:06:07;20.30;;;6.63;;
54745;SDS011;40640;48.130;11.356;2023-06-22T14:10:10;20.33;;;6.20;;
54745;SDS011;40640;48.130;11.356;2023-06-22T14:14:15;16.98;;;5.40;;
54745;SDS011;40640;48.130;11.356;2023-06-22T14:18:18;20.65;;;5.80;;
54745;SDS011;40640;48.130;11.356;2023-06-22T14:22:21;18.70;;;5.70;;
54745;SDS011;40640;48.130;11.356;2023-06-22T14:26:24;24.17;;;6.22;;
54745;SDS011;40640;48.130;11.356;2023-06-22T14:30:29;19.85;;;7.00;;
54745;SDS011;40640;48.130;11.356;2023-06-22T14:34:32;19.90;;;6.10;;
54745;SDS011;40640;48.130;11.356;2023-06-22T14:42:40;26.17;;;7.35;;
54745;SDS011;40640;48.130;11.356;2023-06-22T14:46:44;19.58;;;6.25;;
54745;SDS011;40640;48.130;11.356;2023-06-22T14:50:47;18.83;;;5.57;;
54745;SDS011;40640;48.130;11.356;2023-06-22T14:54:50;18.10;;;6.18;;
54745;SDS011;40640;48.130;11.356;2023-06-22T14:58:53;20.95;;;5.53;;
54745;SDS011;40640;48.130;11.356;2023-06-22T15:02:58;17.33;;;6.03;;
54745;SDS011;40640;48.130;11.356;2023-06-22T15:07:02;15.25;;;6.05;;
54745;SDS011;40640;48.130;11.356;2023-06-22T15:11:05;18.80;;;5.75;;
54745;SDS011;40640;48.130;11.356;2023-06-22T15:15:08;20.30;;;5.70;;
54745;SDS011;40640;48.130;11.356;2023-06-22T15:19:13;15.48;;;5.07;;
54745;SDS011;40640;48.130;11.356;2023-06-22T15:23:16;17.27;;;6.03;;
54745;SDS011;40640;48.130;11.356;2023-06-22T15:27:19;18.80;;;6.05;;
54745;SDS011;40640;48.130;11.356;2023-06-22T15:31:22;20.67;;;6.07;;
54745;SDS011;40640;48.130;11.356;2023-06-22T15:35:27;16.48;;;6.03;;
54745;SDS011;40640;48.130;11.356;2023-06-22T15:39:29;19.53;;;6.23;;
54745;SDS011;40640;48.130;11.356;2023-06-22T15:43:32;20.45;;;6.35;;
54745;SDS011;40640;48.130;11.356;2023-06-22T15:47:35;24.02;;;5.45;;
54745;SDS011;40640;48.130;11.356;2023-06-22T15:51:40;29.08;;;6.55;;
54745;SDS011;40640;48.130;11.356;2023-06-22T15:55:43;17.50;;;4.80;;
54745;SDS011;40640;48.130;11.356;2023-06-22T15:59:48;21.65;;;5.38;;
54745;SDS011;40640;48.130;11.356;2023-06-22T16:03:51;17.13;;;5.57;;
54745;SDS011;40640;48.130;11.356;2023-06-22T16:07:56;24.45;;;5.78;;
54745;SDS011;40640;48.130;11.356;2023-06-22T16:11:59;24.33;;;5.50;;
54745;SDS011;40640;48.130;11.356;2023-06-22T16:16:03;15.50;;;5.55;;
54745;SDS011;40640;48.130;11.356;2023-06-22T16:20:06;21.13;;;5.28;;
54745;SDS011;40640;48.130;11.356;2023-06-22T16:24:12;19.27;;;5.78;;
54745;SDS011;40640;48.130;11.356;2023-06-22T16:28:15;21.90;;;6.40;;
54745;SDS011;40640;48.130;11.356;2023-06-22T16:32:18;18.73;;;5.78;;
54745;SDS011;40640;48.130;11.356;2023-06-22T16:36:22;24.42;;;5.65;;
54745;SDS011;40640;48.130;11.356;2023-06-22T16:40:26;26.70;;;6.05;;
54745;SDS011;40640;48.130;11.356;2023-06-22T16:44:30;26.77;;;5.75;;
54745;SDS011;40640;48.130;11.356;2023-06-22T16:48:33;29.58;;;6.45;;
54745;SDS011;40640;48.130;11.356;2023-06-22T16:52:36;21.23;;;6.22;;
54745;SDS011;40640;48.130;11.356;2023-06-22T16:56:40;29.45;;;6.88;;
54745;SDS011;40640;48.130;11.356;2023-06-22T17:00:44;28.90;;;7.18;;
54745;SDS011;40640;48.130;11.356;2023-06-22T17:04:47;54.05;;;12.57;;
54745;SDS011;40640;48.130;11.356;2023-06-22T17:08:52;36.67;;;8.97;;
54745;SDS011;40640;48.130;11.356;2023-06-22T17:13:00;35.25;;;9.70;;
54745;SDS011;40640;48.130;11.356;2023-06-22T17:17:05;19.50;;;7.20;;
54745;SDS011;40640;48.130;11.356;2023-06-22T17:21:10;44.25;;;8.57;;
54745;SDS011;40640;48.130;11.356;2023-06-22T17:25:14;14.57;;;3.67;;
54745;SDS011;40640;48.130;11.356;2023-06-22T17:29:18;18.58;;;4.63;;
54745;SDS011;40640;48.130;11.356;2023-06-22T17:33:21;18.23;;;4.72;;
54745;SDS011;40640;48.130;11.356;2023-06-22T17:37:24;16.10;;;4.80;;
54745;SDS011;40640;48.130;11.356;2023-06-22T17:41:31;12.95;;;4.90;;
54745;SDS011;40640;48.130;11.356;2023-06-22T17:49:44;14.45;;;4.78;;
54745;SDS011;40640;48.130;11.356;2023-06-22T17:53:47;17.45;;;4.88;;
54745;SDS011;40640;48.130;11.356;2023-06-22T17:57:54;19.45;;;4.78;;
54745;SDS011;40640;48.130;11.356;2023-06-22T18:02:06;15.90;;;4.70;;
54745;SDS011;40640;48.130;11.356;2023-06-22T18:11:45;20.15;;;7.38;;
54745;SDS011;40640;48.130;11.356;2023-06-22T18:15:49;23.52;;;6.38;;
54745;SDS011;40640;48.130;11.356;2023-06-22T18:19:55;14.02;;;5.15;;
54745;SDS011;40640;48.130;11.356;2023-06-22T18:24:00;12.45;;;4.10;;
54745;SDS011;40640;48.130;11.356;2023-06-22T18:28:03;16.90;;;4.50;;
54745;SDS011;40640;48.130;11.356;2023-06-22T18:32:09;17.65;;;5.57;;
54745;SDS011;40640;48.130;11.356;2023-06-22T18:36:13;15.27;;;4.68;;
54745;SDS011;40640;48.130;11.356;2023-06-22T18:40:19;24.10;;;4.43;;
54745;SDS011;40640;48.130;11.356;2023-06-22T18:44:24;18.42;;;5.03;;
54745;SDS011;40640;48.130;11.356;2023-06-22T18:48:28;14.90;;;4.97;;
54745;SDS011;40640;48.130;11.356;2023-06-22T18:52:32;18.23;;;4.32;;
54745;SDS011;40640;48.130;11.356;2023-06-22T18:56:47;16.92;;;4.00;;
54745;SDS011;40640;48.130;11.356;2023-06-22T19:00:54;14.95;;;5.15;;
54745;SDS011;40640;48.130;11.356;2023-06-22T19:05:18;19.45;;;4.18;;
54745;SDS011;40640;48.130;11.356;2023-06-22T19:09:40;18.40;;;4.40;;
54745;SDS011;40640;48.130;11.356;2023-06-22T19:13:46;17.17;;;5.15;;
54745;SDS011;40640;48.130;11.356;2023-06-22T19:17:50;19.63;;;4.32;;
54745;SDS011;40640;48.130;11.356;2023-06-22T19:21:57;13.77;;;3.80;;
54745;SDS011;40640;48.130;11.356;2023-06-22T19:26:03;21.50;;;4.22;;
54745;SDS011;40640;48.130;11.356;2023-06-22T19:30:09;13.10;;;4.45;;
54745;SDS011;40640;48.130;11.356;2023-06-22T19:34:13;20.67;;;6.85;;
54745;SDS011;40640;48.130;11.356;2023-06-22T19:38:16;13.48;;;5.53;;
54745;SDS011;40640;48.130;11.356;2023-06-22T19:42:20;15.73;;;6.70;;
54745;SDS011;40640;48.130;11.356;2023-06-22T19:46:27;24.90;;;7.93;;
54745;SDS011;40640;48.130;11.356;2023-06-22T19:50:32;22.05;;;7.82;;
54745;SDS011;40640;48.130;11.356;2023-06-22T19:54:38;19.38;;;7.88;;
54745;SDS011;40640;48.130;11.356;2023-06-22T19:58:43;19.13;;;8.00;;
54745;SDS011;40640;48.130;11.356;2023-06-22T20:02:48;21.45;;;7.45;;
54745;SDS011;40640;48.130;11.356;2023-06-22T20:07:01;15.48;;;6.90;;
54745;SDS011;40640;48.130;11.356;2023-06-22T20:11:04;21.08;;;6.97;;
54745;SDS011;40640;48.130;11.356;2023-06-22T20:15:14;19.52;;;6.72;;
54745;SDS011;40640;48.130;11.356;2023-06-22T20:19:18;23.45;;;6.65;;
54745;SDS011;40640;48.130;11.356;2023-06-22T20:23:22;18.48;;;7.07;;
54745;SDS011;40640;48.130;11.356;2023-06-22T20:27:25;21.27;;;7.30;;
54745;SDS011;40640;48.130;11.356;2023-06-22T20:31:29;23.00;;;7.32;;
54745;SDS011;40640;48.130;11.356;2023-06-22T20:35:34;20.23;;;7.10;;
54745;SDS011;40640;48.130;11.356;2023-06-22T20:39:37;24.05;;;7.40;;
54745;SDS011;40640;48.130;11.356;2023-06-22T20:43:40;20.83;;;6.47;;
54745;SDS011;40640;48.130;11.356;2023-06-22T20:47:44;15.00;;;6.30;;
54745;SDS011;40640;48.130;11.356;2023-06-22T20:51:47;16.15;;;6.15;;
54745;SDS011;40640;48.130;11.356;2023-06-22T20:55:50;26.63;;;6.82;;
54745;SDS011;40640;48.130;11.356;2023-06-22T20:59:53;16.98;;;6.13;;
54745;SDS011;40640;48.130;11.356;2023-06-22T21:03:57;17.20;;;6.30;;
54745;SDS011;40640;48.130;11.356;2023-06-22T21:08:01;17.80;;;5.60;;
54745;SDS011;40640;48.130;11.356;2023-06-22T21:12:04;24.75;;;6.57;;
54745;SDS011;40640;48.130;11.356;2023-06-22T21:16:10;18.70;;;5.35;;
54745;SDS011;40640;48.130;11.356;2023-06-22T21:20:14;16.27;;;5.75;;
54745;SDS011;40640;48.130;11.356;2023-06-22T21:24:17;14.32;;;5.80;;
54745;SDS011;40640;48.130;11.356;2023-06-22T21:28:20;17.55;;;5.43;;
54745;SDS011;40640;48.130;11.356;2023-06-22T21:32:23;18.73;;;5.65;;
54745;SDS011;40640;48.130;11.356;2023-06-22T21:36:28;16.52;;;5.65;;
54745;SDS011;40640;48.130;11.356;2023-06-22T21:40:31;13.35;;;5.20;;
54745;SDS011;40640;48.130;11.356;2023-06-22T21:44:33;19.73;;;5.70;;
54745;SDS011;40640;48.130;11.356;2023-06-22T21:48:36;16.73;;;5.65;;
54745;SDS011;40640;48.130;11.356;2023-06-22T21:52:42;12.43;;;5.63;;
54745;SDS011;40640;48.130;11.356;2023-06-22T21:56:45;20.73;;;5.68;;
54745;SDS011;40640;48.130;11.356;2023-06-22T22:00:48;13.13;;;5.88;;
54745;SDS011;40640;48.130;11.356;2023-06-22T22:04:51;14.07;;;5.00;;
54745;SDS011;40640;48.130;11.356;2023-06-22T22:08:55;11.82;;;5.30;;
54745;SDS011;40640;48.130;11.356;2023-06-22T22:12:58;15.55;;;5.43;;
54745;SDS011;40640;48.130;11.356;2023-06-22T22:17:01;17.55;;;5.28;;
54745;SDS011;40640;48.130;11.356;2023-06-22T22:21:04;12.25;;;4.45;;
54745;SDS011;40640;48.130;11.356;2023-06-22T22:25:08;7.65;;;3.90;;
54745;SDS011;40640;48.130;11.356;2023-06-22T22:29:11;8.38;;;3.78;;
54745;SDS011;40640;48.130;11.356;2023-06-22T22:33:14;9.68;;;3.53;;
54745;SDS011;40640;48.130;11.356;2023-06-22T22:37:17;7.35;;;3.20;;
54745;SDS011;40640;48.130;11.356;2023-06-22T22:41:21;8.15;;;3.63;;
54745;SDS011;40640;48.130;11.356;2023-06-22T22:45:24;9.75;;;3.17;;
54745;SDS011;40640;48.130;11.356;2023-06-22T22:49:27;6.45;;;3.13;;
54745;SDS011;40640;48.130;11.356;2023-06-22T22:53:30;8.13;;;3.00;;
54745;SDS011;40640;48.130;11.356;2023-06-22T22:57:36;5.85;;;2.95;;
54745;SDS011;40640;48.130;11.356;2023-06-22T23:01:39;9.55;;;3.42;;
54745;SDS011;40640;48.130;11.356;2023-06-22T23:05:42;8.30;;;3.15;;
54745;SDS011;40640;48.130;11.356;2023-06-22T23:09:45;10.73;;;3.00;;
54745;SDS011;40640;48.130;11.356;2023-06-22T23:13:49;7.90;;;3.03;;
54745;SDS011;40640;48.130;11.356;2023-06-22T23:17:52;4.70;;;2.50;;
54745;SDS011;40640;48.130;11.356;2023-06-22T23:21:55;8.15;;;3.13;;
54745;SDS011;40640;48.130;11.356;2023-06-22T23:25:58;5.05;;;2.60;;
54745;SDS011;40640;48.130;11.356;2023-06-22T23:30:02;7.93;;;2.63;;
54745;SDS011;40640;48.130;11.356;2023-06-22T23:34:10;5.55;;;2.50;;
54745;SDS011;40640;48.130;11.356;2023-06-22T23:38:13;7.95;;;2.50;;
54745;SDS011;40640;48.130;11.356;2023-06-22T23:42:17;3.88;;;1.95;;
54745;SDS011;40640;48.130;11.356;2023-06-22T23:46:22;5.43;;;2.22;;
54745;SDS011;40640;48.130;11.356;2023-06-22T23:50:25;5.03;;;1.85;;
54745;SDS011;40640;48.130;11.356;2023-06-22T23:54:28;6.97;;;2.00;;
54745;SDS011;40640;48.130;11.356;2023-06-22T23:58:31;5.45;;;2.20;;
